Time;durP1;ratioP1;P1;durP2;ratioP2;P2;SDS_P1;SDS_P2;PMS_P1;PMS_P2;Temp;Humidity;BMP_temperature;BMP_pressure;BME280_temperature;BME280_humidity;BME280_pressure;Samples;Min_cycle;Max_cycle;Signal;HPM_P1;HPM_P2
2022/07/03 00:01:44;;;;;;;2.58;2.05;;;18.30;99.90;;;;;;5037483;28;20063;-65
2022/07/03 00:04:10;;;;;;;5.63;2.60;;;18.40;99.90;;;;;;5055185;28;20045;-65
2022/07/03 00:06:35;;;;;;;4.63;2.38;;;18.40;99.90;;;;;;5054594;28;20047;-64
2022/07/03 00:09:04;;;;;;;8.30;2.80;;;18.40;99.90;;;;;;5075459;28;20019;-65
2022/07/03 00:11:29;;;;;;;4.22;2.55;;;18.40;99.90;;;;;;5075298;28;20020;-68
2022/07/03 00:13:55;;;;;;;5.93;2.50;;;18.40;99.90;;;;;;5071646;28;20040;-67
2022/07/03 00:16:21;;;;;;;4.97;2.17;;;18.40;99.90;;;;;;5055151;28;20029;-64
2022/07/03 00:18:46;;;;;;;5.20;2.70;;;18.40;99.90;;;;;;5051906;28;20032;-64
2022/07/03 00:21:53;;;;;;;5.55;2.35;;;18.50;99.90;;;;;;5063085;28;20362;-64
2022/07/03 00:25:01;;;;;;;5.40;2.55;;;18.50;99.90;;;;;;4977702;28;20060;-67
2022/07/03 00:27:28;;;;;;;2.90;2.10;;;18.50;99.90;;;;;;4994138;28;20088;-64
2022/07/03 00:29:58;;;;;;;4.68;2.28;;;18.40;99.90;;;;;;5034234;28;20029;-64
2022/07/03 00:32:24;;;;;;;10.52;2.22;;;18.50;99.90;;;;;;5055252;28;20048;-66
2022/07/03 00:34:52;;;;;;;4.10;1.85;;;18.50;99.90;;;;;;5055423;28;20025;-64
2022/07/03 00:37:18;;;;;;;7.47;1.77;;;18.40;99.90;;;;;;5062969;28;20062;-64
2022/07/03 00:39:45;;;;;;;6.35;2.17;;;18.40;99.90;;;;;;5047324;28;20036;-65
2022/07/03 00:42:12;;;;;;;5.20;2.65;;;18.40;99.90;;;;;;5034913;28;20026;-64
2022/07/03 00:44:53;;;;;;;6.80;2.25;;;18.40;99.90;;;;;;5044573;28;20060;-63
2022/07/03 00:47:22;;;;;;;2.78;1.90;;;18.40;99.90;;;;;;5069623;28;20016;-64
2022/07/03 00:49:50;;;;;;;4.22;2.20;;;18.50;99.90;;;;;;5050256;28;20075;-66
2022/07/03 00:52:17;;;;;;;5.07;1.80;;;18.50;99.90;;;;;;5037818;28;20033;-64
2022/07/03 00:54:54;;;;;;;3.70;2.00;;;18.50;99.90;;;;;;5037619;28;20079;-67
2022/07/03 00:57:22;;;;;;;5.15;1.98;;;18.50;99.90;;;;;;5047799;28;20025;-65
2022/07/03 00:59:47;;;;;;;2.50;1.85;;;18.40;99.90;;;;;;5045140;28;20060;-66
2022/07/03 01:02:58;;;;;;;2.63;1.88;;;18.50;99.90;;;;;;5052321;28;20052;-65
2022/07/03 01:05:40;;;;;;;5.13;2.20;;;18.40;99.90;;;;;;5053748;28;20071;-66
2022/07/03 01:08:32;;;;;;;5.90;2.15;;;18.50;99.90;;;;;;5054626;28;20017;-68
2022/07/03 01:11:07;;;;;;;;;;;18.50;99.90;;;;;;5034181;28;20034;-67
2022/07/03 01:13:39;;;;;;;4.43;2.30;;;18.50;99.90;;;;;;5035802;28;19901;-69
2022/07/03 01:16:30;;;;;;;3.33;2.40;;;18.50;99.90;;;;;;5036994;28;20029;-66
2022/07/03 01:19:21;;;;;;;5.10;1.77;;;18.40;99.90;;;;;;5053555;28;20111;-65
2022/07/03 01:21:53;;;;;;;4.32;1.60;;;18.40;99.90;;;;;;5038373;28;20029;-63
2022/07/03 01:24:44;;;;;;;4.68;1.42;;;18.40;99.90;;;;;;5034477;28;20160;-66
2022/07/03 01:27:30;;;;;;;2.78;1.27;;;18.40;99.90;;;;;;5043376;28;20042;-67
2022/07/03 01:30:03;;;;;;;2.35;1.38;;;18.40;99.90;;;;;;5042118;28;20025;-67
2022/07/03 01:32:33;;;;;;;3.70;1.40;;;18.40;99.90;;;;;;5033359;28;20124;-66
2022/07/03 01:35:02;;;;;;;5.30;1.40;;;18.40;99.90;;;;;;5052340;28;20113;-66
2022/07/03 01:37:30;;;;;;;5.72;1.77;;;18.40;99.90;;;;;;5048080;28;20033;-65
2022/07/03 01:39:57;;;;;;;4.47;1.42;;;18.40;99.90;;;;;;5040996;28;20021;-64
2022/07/03 01:42:24;;;;;;;3.97;1.70;;;18.40;99.90;;;;;;5047064;28;20040;-64
2022/07/03 01:44:52;;;;;;;4.68;1.40;;;18.40;99.90;;;;;;5048302;28;20080;-67
2022/07/03 01:47:18;;;;;;;2.13;0.98;;;18.50;99.90;;;;;;5037410;28;20382;-64
2022/07/03 01:49:44;;;;;;;5.63;1.10;;;18.50;99.90;;;;;;5040960;28;20025;-67
2022/07/03 01:52:16;;;;;;;5.70;1.20;;;18.50;99.90;;;;;;5044717;28;20021;-67
2022/07/03 01:54:44;;;;;;;0.60;0.60;;;18.50;99.90;;;;;;5037603;28;20470;-64
2022/07/03 01:57:10;;;;;;;4.68;1.27;;;18.50;99.90;;;;;;5037602;28;20032;-64
2022/07/03 01:59:36;;;;;;;1.80;1.00;;;18.60;99.90;;;;;;5042124;28;20021;-67
2022/07/03 02:02:16;;;;;;;1.80;0.60;;;18.50;99.90;;;;;;5053320;28;20063;-64
2022/07/03 02:04:58;;;;;;;3.53;0.85;;;18.50;99.90;;;;;;5063561;28;20446;-65
2022/07/03 02:08:02;;;;;;;3.72;0.95;;;18.50;99.90;;;;;;5052348;28;20123;-63
2022/07/03 02:10:32;;;;;;;1.98;0.90;;;18.50;99.90;;;;;;5038291;28;20439;-65
2022/07/03 02:13:06;;;;;;;3.15;1.08;;;18.50;99.90;;;;;;5052521;28;20043;-63
2022/07/03 02:15:33;;;;;;;2.17;0.82;;;18.50;99.90;;;;;;5051629;28;20021;-63
2022/07/03 02:18:27;;;;;;;3.10;1.00;;;18.40;99.90;;;;;;5052909;28;20025;-64
2022/07/03 02:21:04;;;;;;;2.08;0.70;;;18.40;99.90;;;;;;5051630;28;20025;-67
2022/07/03 02:23:35;;;;;;;3.50;0.80;;;18.40;99.90;;;;;;5052519;28;20021;-64
2022/07/03 02:26:07;;;;;;;4.03;1.10;;;18.30;99.90;;;;;;5052338;28;20057;-68
2022/07/03 02:28:57;;;;;;;3.53;1.08;;;18.30;99.90;;;;;;5036294;28;20103;-64
2022/07/03 02:31:26;;;;;;;3.28;1.20;;;18.20;99.90;;;;;;5042789;28;20470;-64
2022/07/03 02:33:58;;;;;;;3.35;0.95;;;18.10;99.90;;;;;;5042996;28;20064;-64
2022/07/03 02:36:26;;;;;;;;;;;18.00;99.90;;;;;;5033104;28;20025;-64
2022/07/03 02:38:56;;;;;;;4.95;1.65;;;18.00;99.90;;;;;;5044742;28;19901;-64
2022/07/03 02:41:43;;;;;;;2.60;1.33;;;17.80;99.90;;;;;;5043194;28;20032;-65
2022/07/03 02:44:38;;;;;;;4.57;1.40;;;17.80;99.90;;;;;;5062173;28;20056;-64
2022/07/03 02:47:11;;;;;;;5.55;1.38;;;17.70;99.90;;;;;;5047881;28;20021;-64
2022/07/03 02:49:55;;;;;;;4.40;1.20;;;17.60;99.90;;;;;;5047734;28;20370;-66
2022/07/03 02:52:32;;;;;;;7.18;1.20;;;17.50;99.90;;;;;;5052043;28;20344;-64
2022/07/03 02:55:07;;;;;;;3.70;1.20;;;17.50;99.90;;;;;;5036393;28;20052;-63
2022/07/03 02:57:39;;;;;;;6.53;1.20;;;17.40;99.90;;;;;;5031993;28;20022;-64
2022/07/03 03:00:07;;;;;;;7.03;1.98;;;17.40;99.90;;;;;;5032332;28;20021;-67
2022/07/03 03:02:44;;;;;;;5.75;1.30;;;17.40;99.90;;;;;;5032341;28;20036;-65
2022/07/03 03:05:20;;;;;;;5.20;1.30;;;17.50;99.90;;;;;;5045904;28;20124;-62
2022/07/03 03:08:05;;;;;;;4.45;1.50;;;17.60;99.90;;;;;;5045026;28;20099;-64
2022/07/03 03:10:36;;;;;;;4.88;1.40;;;17.60;99.90;;;;;;5032591;28;20072;-64
2022/07/03 03:13:04;;;;;;;6.15;1.65;;;17.60;99.90;;;;;;5032111;28;20044;-64
2022/07/03 03:15:31;;;;;;;4.65;1.65;;;17.50;99.90;;;;;;5043322;28;20031;-64
2022/07/03 03:18:02;;;;;;;6.30;1.73;;;17.50;99.90;;;;;;5051798;28;20025;-64
2022/07/03 03:20:31;;;;;;;7.20;1.60;;;17.50;99.90;;;;;;5043116;28;20025;-66
2022/07/03 03:23:11;;;;;;;4.22;1.27;;;17.40;99.90;;;;;;5054810;28;20262;-68
2022/07/03 03:25:37;;;;;;;4.75;1.65;;;17.40;99.90;;;;;;5046778;28;20454;-64
2022/07/03 03:28:03;;;;;;;8.93;2.17;;;17.20;99.90;;;;;;5038066;28;20052;-67
2022/07/03 03:30:29;;;;;;;6.15;1.55;;;17.20;99.90;;;;;;5035790;28;20025;-64
2022/07/03 03:32:54;;;;;;;5.20;1.50;;;17.20;99.90;;;;;;5036030;28;20352;-64
2022/07/03 03:35:20;;;;;;;4.82;1.67;;;17.10;99.90;;;;;;5035516;28;20025;-67
2022/07/03 03:37:49;;;;;;;7.88;2.20;;;17.10;99.90;;;;;;5048411;28;20044;-64
2022/07/03 03:40:16;;;;;;;6.72;1.75;;;17.10;99.90;;;;;;5055574;28;20025;-63
2022/07/03 03:42:42;;;;;;;3.78;1.80;;;17.00;99.90;;;;;;5041359;28;20044;-67
2022/07/03 03:45:08;;;;;;;4.32;1.70;;;17.00;99.90;;;;;;5040651;28;20041;-66
2022/07/03 03:47:34;;;;;;;6.72;1.42;;;17.00;99.90;;;;;;5038863;28;20025;-64
2022/07/03 03:50:01;;;;;;;4.82;1.25;;;16.90;99.90;;;;;;5035975;28;20017;-63
2022/07/03 03:52:28;;;;;;;6.10;1.65;;;16.90;99.90;;;;;;5034776;28;20033;-67
2022/07/03 03:54:54;;;;;;;11.55;2.70;;;16.90;99.90;;;;;;5035312;28;20366;-66
2022/07/03 03:57:24;;;;;;;7.95;1.58;;;16.90;99.90;;;;;;5036394;28;20108;-65
2022/07/03 03:59:50;;;;;;;6.22;1.42;;;16.80;99.90;;;;;;5035587;28;20533;-64
2022/07/03 04:02:17;;;;;;;5.88;1.73;;;16.90;99.90;;;;;;5042880;28;20025;-65
2022/07/03 04:04:43;;;;;;;9.48;2.00;;;16.90;99.90;;;;;;5052939;28;20074;-67
2022/07/03 04:07:09;;;;;;;6.05;2.33;;;16.80;99.90;;;;;;5050503;28;20031;-66
2022/07/03 04:09:35;;;;;;;7.40;1.83;;;16.90;99.90;;;;;;5053945;28;20017;-65
2022/07/03 04:12:00;;;;;;;5.60;1.65;;;16.90;99.90;;;;;;5052641;28;20036;-65
2022/07/03 04:14:26;;;;;;;10.70;2.17;;;16.90;99.90;;;;;;5053377;28;20029;-64
2022/07/03 04:16:52;;;;;;;8.70;1.83;;;16.90;99.90;;;;;;5051392;28;20013;-64
2022/07/03 04:19:18;;;;;;;7.15;2.00;;;16.90;99.90;;;;;;5051692;28;20443;-65
2022/07/03 04:21:43;;;;;;;14.93;2.58;;;16.90;99.90;;;;;;5050644;28;20074;-65
2022/07/03 04:24:09;;;;;;;8.15;2.00;;;17.00;99.90;;;;;;5051047;28;20036;-63
2022/07/03 04:26:34;;;;;;;9.35;2.10;;;17.00;99.90;;;;;;5053742;28;20031;-66
2022/07/03 04:29:00;;;;;;;8.88;1.70;;;17.00;99.90;;;;;;5047336;28;20021;-65
2022/07/03 04:31:26;;;;;;;11.98;2.40;;;17.00;99.90;;;;;;5049522;28;20032;-66
2022/07/03 04:33:52;;;;;;;12.73;2.17;;;17.10;99.90;;;;;;5048713;28;20052;-69
2022/07/03 04:36:18;;;;;;;9.60;2.63;;;17.10;99.90;;;;;;5053111;28;20033;-67
2022/07/03 04:38:44;;;;;;;9.23;2.10;;;17.10;99.90;;;;;;5051987;28;20056;-65
2022/07/03 04:41:09;;;;;;;9.85;2.70;;;17.10;99.90;;;;;;5052852;28;20025;-66
2022/07/03 04:43:38;;;;;;;7.88;2.15;;;17.10;99.90;;;;;;5053243;28;20087;-65
2022/07/03 04:46:05;;;;;;;8.50;2.78;;;17.20;99.90;;;;;;5052131;28;20028;-67
2022/07/03 04:48:31;;;;;;;8.70;2.40;;;17.20;99.90;;;;;;5051731;28;20017;-66
2022/07/03 04:50:57;;;;;;;11.98;2.85;;;17.20;99.90;;;;;;5051524;28;20028;-65
2022/07/03 04:53:22;;;;;;;11.60;2.35;;;17.20;99.90;;;;;;5051009;28;20520;-65
2022/07/03 04:55:48;;;;;;;9.75;2.67;;;17.20;99.90;;;;;;5051430;28;20056;-64
2022/07/03 04:58:14;;;;;;;9.82;3.13;;;17.20;99.90;;;;;;5051120;28;20091;-64
2022/07/03 05:00:40;;;;;;;13.23;2.45;;;17.20;99.90;;;;;;5051074;28;20098;-65
2022/07/03 05:03:06;;;;;;;11.25;2.45;;;17.30;99.90;;;;;;5051088;28;20025;-64
2022/07/03 05:05:32;;;;;;;13.82;3.40;;;17.40;99.90;;;;;;5049844;28;20037;-66
2022/07/03 05:07:58;;;;;;;15.77;3.10;;;17.40;99.90;;;;;;5052795;28;20020;-65
2022/07/03 05:10:24;;;;;;;16.42;4.38;;;17.50;99.90;;;;;;5051045;28;20024;-65
2022/07/03 05:12:49;;;;;;;10.48;3.30;;;17.60;99.90;;;;;;5052720;28;20451;-66
2022/07/03 05:15:15;;;;;;;13.20;2.70;;;17.70;99.90;;;;;;5051544;28;20444;-64
2022/07/03 05:17:40;;;;;;;8.63;2.13;;;17.70;99.90;;;;;;5052319;28;20039;-63
2022/07/03 05:20:24;;;;;;;11.48;2.58;;;17.70;99.90;;;;;;5052781;28;20575;-64
2022/07/03 05:22:52;;;;;;;9.52;2.15;;;17.90;99.90;;;;;;5052198;28;20187;-64
2022/07/03 05:25:17;;;;;;;10.38;3.00;;;18.10;99.90;;;;;;5048388;28;20067;-64
2022/07/03 05:27:43;;;;;;;10.05;2.90;;;18.20;99.90;;;;;;5053149;28;20021;-64
2022/07/03 05:30:09;;;;;;;7.57;2.42;;;18.40;99.90;;;;;;5051938;28;20133;-64
2022/07/03 05:32:35;;;;;;;12.35;3.45;;;18.60;99.90;;;;;;5053334;28;20049;-65
2022/07/03 05:35:00;;;;;;;9.20;2.65;;;18.80;99.90;;;;;;5053191;28;20428;-64
2022/07/03 05:37:26;;;;;;;9.57;2.25;;;19.20;99.90;;;;;;5053283;28;20072;-63
2022/07/03 05:39:52;;;;;;;12.05;2.10;;;19.40;99.90;;;;;;5052603;28;20452;-66
2022/07/03 05:42:17;;;;;;;10.90;2.58;;;19.40;99.90;;;;;;5052765;28;20025;-64
2022/07/03 05:44:43;;;;;;;15.52;2.70;;;19.70;99.90;;;;;;5053062;28;20497;-67
2022/07/03 05:47:08;;;;;;;7.40;2.35;;;20.40;99.90;;;;;;5053123;28;20029;-64
2022/07/03 05:49:34;;;;;;;10.60;2.55;;;20.90;99.90;;;;;;5053066;28;20048;-67
2022/07/03 05:51:59;;;;;;;7.82;2.08;;;21.70;99.90;;;;;;5053221;28;20113;-67
2022/07/03 05:54:25;;;;;;;6.85;1.55;;;22.20;99.90;;;;;;5053004;28;20104;-65
2022/07/03 05:56:50;;;;;;;12.88;2.28;;;22.70;99.90;;;;;;5052975;28;20036;-63
2022/07/03 05:59:16;;;;;;;8.90;1.90;;;23.20;99.90;;;;;;5053225;28;20024;-68
2022/07/03 06:01:41;;;;;;;7.88;1.75;;;23.80;99.90;;;;;;5052524;28;20339;-64
2022/07/03 06:04:07;;;;;;;8.82;2.08;;;24.00;99.90;;;;;;5051119;28;20024;-68
2022/07/03 06:06:33;;;;;;;6.18;1.70;;;23.80;99.90;;;;;;5052813;28;20156;-66
2022/07/03 06:08:58;;;;;;;8.25;1.75;;;23.50;99.90;;;;;;5052436;28;20029;-67
2022/07/03 06:11:24;;;;;;;9.55;1.98;;;23.20;99.90;;;;;;5052976;28;20033;-64
2022/07/03 06:13:49;;;;;;;9.93;1.83;;;23.10;99.90;;;;;;5051288;28;20120;-64
2022/07/03 06:16:15;;;;;;;10.32;2.65;;;22.90;99.90;;;;;;5053317;28;20021;-64
2022/07/03 06:18:40;;;;;;;12.18;2.30;;;22.60;99.90;;;;;;5052653;28;20457;-65
2022/07/03 06:21:06;;;;;;;12.23;2.42;;;22.40;99.90;;;;;;5052968;28;20123;-68
2022/07/03 06:23:31;;;;;;;6.90;1.73;;;22.30;99.90;;;;;;5052820;28;20037;-64
2022/07/03 06:25:57;;;;;;;11.75;2.22;;;22.50;99.90;;;;;;5052904;28;20108;-65
2022/07/03 06:28:22;;;;;;;8.18;1.75;;;22.70;99.90;;;;;;5052659;28;20359;-64
2022/07/03 06:30:48;;;;;;;7.47;1.77;;;23.00;99.90;;;;;;5052631;28;20471;-64
2022/07/03 06:33:13;;;;;;;8.55;2.20;;;23.80;99.90;;;;;;5052023;28;20094;-67
2022/07/03 06:35:39;;;;;;;7.28;1.80;;;24.30;99.90;;;;;;5031532;28;20129;-66
2022/07/03 06:38:05;;;;;;;10.82;1.80;;;25.10;99.90;;;;;;5031535;28;20022;-64
2022/07/03 06:40:30;;;;;;;7.85;2.00;;;25.60;99.10;;;;;;5050644;28;20029;-64
2022/07/03 06:42:56;;;;;;;7.43;1.30;;;25.20;98.80;;;;;;5051826;28;20530;-64
2022/07/03 06:45:22;;;;;;;7.95;1.70;;;24.70;99.20;;;;;;5051990;28;20032;-64
2022/07/03 06:47:47;;;;;;;7.03;1.90;;;24.90;99.30;;;;;;5052421;28;20031;-64
2022/07/03 06:50:13;;;;;;;6.65;1.52;;;25.80;98.40;;;;;;5052429;28;20025;-65
2022/07/03 06:52:38;;;;;;;10.00;1.50;;;26.90;97.30;;;;;;5055374;28;20017;-68
2022/07/03 06:55:05;;;;;;;3.40;1.52;;;27.60;95.80;;;;;;5059474;28;20104;-66
2022/07/03 06:57:31;;;;;;;6.13;1.38;;;28.10;95.10;;;;;;5060858;28;20481;-64
2022/07/03 06:59:56;;;;;;;5.68;1.50;;;28.40;94.40;;;;;;5060416;28;20021;-65
2022/07/03 07:02:22;;;;;;;6.57;1.40;;;28.90;93.90;;;;;;5058712;28;20433;-65
2022/07/03 07:04:48;;;;;;;5.50;1.40;;;29.00;93.00;;;;;;5058253;28;20048;-65
2022/07/03 07:07:13;;;;;;;5.55;1.30;;;28.70;93.20;;;;;;5059239;28;20103;-64
2022/07/03 07:09:39;;;;;;;6.90;1.85;;;28.60;92.80;;;;;;5058814;28;20426;-66
2022/07/03 07:12:05;;;;;;;5.43;1.38;;;28.20;93.20;;;;;;5058778;28;20024;-64
2022/07/03 07:14:31;;;;;;;5.25;1.20;;;27.70;93.70;;;;;;5058471;28;20032;-65
2022/07/03 07:16:56;;;;;;;7.45;1.58;;;27.00;94.10;;;;;;5058513;28;20033;-66
2022/07/03 07:19:22;;;;;;;4.30;1.48;;;26.50;94.70;;;;;;5057663;28;20111;-67
2022/07/03 07:21:48;;;;;;;4.35;1.20;;;26.20;95.30;;;;;;5058684;28;20099;-65
2022/07/03 07:24:13;;;;;;;4.00;1.20;;;26.10;95.40;;;;;;5059360;28;20044;-64
2022/07/03 07:26:39;;;;;;;5.53;1.33;;;26.50;95.00;;;;;;5058585;28;20430;-65
2022/07/03 07:29:04;;;;;;;4.97;1.15;;;26.50;94.70;;;;;;5059242;28;20029;-65
2022/07/03 07:31:30;;;;;;;4.63;1.30;;;26.40;94.80;;;;;;5058965;28;20140;-65
2022/07/03 07:33:56;;;;;;;4.47;1.42;;;26.60;94.50;;;;;;5059151;28;20076;-64
2022/07/03 07:36:21;;;;;;;7.60;1.55;;;26.50;94.30;;;;;;5068287;28;20111;-65
2022/07/03 07:38:47;;;;;;;5.93;1.33;;;26.10;94.70;;;;;;5072005;28;20040;-67
2022/07/03 07:41:12;;;;;;;6.50;1.25;;;25.90;95.20;;;;;;5058973;28;20027;-67
2022/07/03 07:43:38;;;;;;;7.07;1.80;;;25.80;95.20;;;;;;5059253;28;20096;-65
2022/07/03 07:46:03;;;;;;;7.68;1.58;;;25.60;95.40;;;;;;5059059;28;20091;-65
2022/07/03 07:48:29;;;;;;;4.32;1.38;;;25.30;95.60;;;;;;5058919;28;20021;-68
2022/07/03 07:50:55;;;;;;;3.63;1.40;;;25.10;96.00;;;;;;5058657;28;20040;-64
2022/07/03 07:53:21;;;;;;;6.88;1.50;;;25.00;96.10;;;;;;5058645;28;20056;-65
2022/07/03 07:55:46;;;;;;;5.38;1.02;;;25.20;96.20;;;;;;5058408;28;20029;-64
2022/07/03 07:58:12;;;;;;;5.30;1.20;;;25.40;95.60;;;;;;5058197;28;20021;-64
2022/07/03 08:05:35;;;;;;;3.47;1.30;;;25.80;95.00;;;;;;5046776;28;20028;-65
2022/07/03 08:06:07;;;;;;;5.25;1.35;;;25.90;94.70;;;;;;5052459;28;20536;-64
2022/07/03 08:08:32;;;;;;;3.20;1.17;;;25.70;94.70;;;;;;5051481;28;20025;-64
2022/07/03 08:10:58;;;;;;;4.20;1.27;;;25.50;95.10;;;;;;5043680;28;20019;-65
2022/07/03 08:13:23;;;;;;;3.15;1.10;;;25.30;95.40;;;;;;5040403;28;20021;-67
2022/07/03 08:15:49;;;;;;;4.28;1.35;;;25.10;95.70;;;;;;5045733;28;20451;-64
2022/07/03 08:18:15;;;;;;;2.63;1.30;;;25.00;95.70;;;;;;5041392;28;20434;-64
2022/07/03 08:20:40;;;;;;;2.95;1.13;;;25.00;95.70;;;;;;5038527;28;20024;-69
2022/07/03 08:23:06;;;;;;;4.68;1.23;;;25.00;95.80;;;;;;5038485;28;20105;-68
2022/07/03 08:25:32;;;;;;;8.25;1.15;;;25.20;95.80;;;;;;5042684;28;20068;-64
2022/07/03 08:27:58;;;;;;;3.05;1.45;;;25.30;95.70;;;;;;5051637;28;20178;-63
2022/07/03 08:30:25;;;;;;;5.40;1.80;;;25.50;94.90;;;;;;5044975;28;20027;-64
2022/07/03 08:32:53;;;;;;;6.03;1.35;;;25.50;94.80;;;;;;5038944;28;20069;-64
2022/07/03 08:35:19;;;;;;;2.60;1.38;;;25.40;94.80;;;;;;5042259;28;20045;-64
2022/07/03 08:37:47;;;;;;;4.45;1.10;;;25.70;94.20;;;;;;5040655;28;20022;-66
2022/07/03 08:40:14;;;;;;;2.63;1.38;;;26.20;93.00;;;;;;5038012;28;20455;-68
2022/07/03 08:42:55;;;;;;;4.95;1.50;;;26.30;92.90;;;;;;5043818;28;20024;-65
2022/07/03 08:45:22;;;;;;;2.00;1.27;;;26.50;92.80;;;;;;5046256;28;20041;-66
2022/07/03 08:47:49;;;;;;;2.42;1.40;;;26.50;92.50;;;;;;5035074;28;20033;-66
2022/07/03 08:50:18;;;;;;;4.57;1.48;;;26.40;92.80;;;;;;5046921;28;20028;-65
2022/07/03 08:52:45;;;;;;;2.67;1.30;;;26.40;92.60;;;;;;5053743;28;20021;-65
2022/07/03 08:55:13;;;;;;;6.63;1.40;;;26.40;93.00;;;;;;5053896;28;20044;-66
2022/07/03 08:57:40;;;;;;;4.10;1.15;;;26.60;92.30;;;;;;5063752;28;20024;-66
2022/07/03 09:00:12;;;;;;;2.85;1.48;;;26.90;92.10;;;;;;5049834;28;20114;-67
2022/07/03 09:02:43;;;;;;;4.78;1.27;;;27.20;91.80;;;;;;5053014;28;20017;-67
2022/07/03 09:05:10;;;;;;;3.67;1.40;;;27.40;91.10;;;;;;5059289;28;20081;-64
2022/07/03 09:07:36;;;;;;;2.05;1.00;;;27.70;91.00;;;;;;5055046;28;20485;-64
2022/07/03 09:10:10;;;;;;;2.08;1.00;;;28.10;90.50;;;;;;5054441;28;20024;-65
2022/07/03 09:12:36;;;;;;;0.98;0.80;;;29.00;89.30;;;;;;5053544;28;20455;-67
2022/07/03 09:15:07;;;;;;;5.00;0.82;;;29.80;87.20;;;;;;5053562;28;20028;-65
2022/07/03 09:17:33;;;;;;;1.80;0.80;;;30.10;85.40;;;;;;5054230;28;20079;-64
2022/07/03 09:20:03;;;;;;;2.22;0.70;;;30.90;83.90;;;;;;5053959;28;20021;-65
2022/07/03 09:22:33;;;;;;;2.92;0.60;;;31.50;82.50;;;;;;5054406;28;20039;-65
2022/07/03 09:25:13;;;;;;;1.73;0.50;;;32.20;79.90;;;;;;5053727;28;20061;-64
2022/07/03 09:27:51;;;;;;;1.65;0.60;;;32.00;79.10;;;;;;5054211;28;20032;-65
2022/07/03 09:30:16;;;;;;;2.92;1.02;;;31.30;79.00;;;;;;5050251;28;20075;-65
2022/07/03 09:32:44;;;;;;;3.53;1.15;;;31.20;79.40;;;;;;5052933;28;20053;-64
2022/07/03 09:35:36;;;;;;;0.82;0.68;;;31.10;79.50;;;;;;5054001;28;20013;-65
2022/07/03 09:38:04;;;;;;;2.40;0.77;;;31.20;79.20;;;;;;5050173;28;20082;-65
2022/07/03 09:40:51;;;;;;;1.48;0.90;;;31.50;77.90;;;;;;5053801;28;20025;-66
2022/07/03 09:43:27;;;;;;;1.08;0.57;;;31.80;76.90;;;;;;5053450;28;20028;-69
2022/07/03 09:46:02;;;;;;;3.80;0.77;;;32.10;76.00;;;;;;5053200;28;20051;-66
2022/07/03 09:48:31;;;;;;;6.97;2.53;;;32.30;75.50;;;;;;5053921;28;20351;-63
2022/07/03 09:51:10;;;;;;;2.47;1.17;;;32.70;74.70;;;;;;5053783;28;20071;-65
2022/07/03 09:53:55;;;;;;;1.77;1.00;;;32.50;74.70;;;;;;5053589;28;20100;-66
2022/07/03 09:56:23;;;;;;;3.30;1.27;;;32.30;75.20;;;;;;5053363;28;20387;-65
2022/07/03 09:59:12;;;;;;;7.35;1.95;;;32.50;75.50;;;;;;5052645;28;20032;-65
2022/07/03 10:01:47;;;;;;;3.75;1.15;;;32.40;73.90;;;;;;5051504;28;20036;-65
2022/07/03 10:04:12;;;;;;;2.97;0.85;;;32.10;74.80;;;;;;5051358;28;20021;-67
2022/07/03 10:06:58;;;;;;;2.40;0.80;;;31.80;75.50;;;;;;5051570;28;20024;-69
2022/07/03 10:09:28;;;;;;;3.75;0.98;;;31.30;76.20;;;;;;5051572;28;20021;-69
2022/07/03 10:11:56;;;;;;;5.00;1.03;;;30.50;77.60;;;;;;5049901;28;20021;-64
2022/07/03 10:14:23;;;;;;;3.38;1.25;;;29.80;79.00;;;;;;5053394;28;20024;-67
2022/07/03 10:16:49;;;;;;;4.93;1.20;;;29.30;80.40;;;;;;5053355;28;20427;-68
2022/07/03 10:19:18;;;;;;;3.28;1.00;;;28.90;80.90;;;;;;5053084;28;20033;-65
2022/07/03 10:21:50;;;;;;;3.58;1.38;;;28.60;81.60;;;;;;5063551;28;20113;-65
2022/07/03 10:24:17;;;;;;;;;;;28.60;81.90;;;;;;5060115;28;20032;-66
2022/07/03 10:26:43;;;;;;;2.03;1.00;;;28.90;82.40;;;;;;5052419;28;19905;-65
2022/07/03 10:29:10;;;;;;;1.45;0.88;;;29.60;81.80;;;;;;5071419;28;20031;-65
2022/07/03 10:31:38;;;;;;;7.70;1.63;;;30.40;80.50;;;;;;5073220;28;20096;-65
2022/07/03 10:34:05;;;;;;;2.92;0.68;;;31.30;78.90;;;;;;5073209;28;20484;-69
2022/07/03 10:36:33;;;;;;;4.55;0.70;;;32.40;77.60;;;;;;5069616;28;20024;-65
2022/07/03 10:39:05;;;;;;;2.88;0.70;;;33.30;75.00;;;;;;5055840;28;20418;-65
2022/07/03 10:47:05;;;;;;;2.05;0.60;;;34.80;70.00;;;;;;5051372;28;20071;-66
2022/07/03 10:49:31;;;;;;;3.03;0.73;;;35.20;69.80;;;;;;5051905;28;20028;-65
2022/07/03 10:51:57;;;;;;;10.75;5.72;;;35.40;68.30;;;;;;5053156;28;20021;-69
2022/07/03 10:54:36;;;;;;;7.13;2.97;;;35.50;69.00;;;;;;5052562;28;20044;-69
2022/07/03 10:57:06;;;;;;;1.73;0.63;;;35.70;67.30;;;;;;5052773;28;20041;-67
2022/07/03 10:59:31;;;;;;;2.47;0.60;;;35.20;67.00;;;;;;5052310;28;20052;-65
2022/07/03 11:02:34;;;;;;;2.30;0.85;;;35.00;67.70;;;;;;5033824;28;20463;-65
2022/07/03 11:05:00;;;;;;;1.55;0.50;;;34.80;66.70;;;;;;5032436;28;20052;-67
2022/07/03 11:07:26;;;;;;;1.92;0.73;;;34.90;66.70;;;;;;5052795;28;20111;-69
2022/07/03 11:10:10;;;;;;;1.58;0.57;;;35.10;65.70;;;;;;5052881;28;20377;-65
2022/07/03 11:13:01;;;;;;;1.13;0.68;;;35.30;65.50;;;;;;5052682;28;20029;-66
2022/07/03 11:15:35;;;;;;;2.20;0.60;;;35.90;64.20;;;;;;5051982;28;20040;-66
2022/07/03 11:18:30;;;;;;;2.45;0.85;;;36.60;63.10;;;;;;5052980;28;20119;-65
2022/07/03 11:21:10;;;;;;;1.80;0.60;;;36.20;61.70;;;;;;5052436;28;20070;-65
2022/07/03 11:24:08;;;;;;;1.02;0.50;;;35.40;63.20;;;;;;5053118;28;20021;-68
2022/07/03 11:26:33;;;;;;;2.40;0.82;;;35.50;61.20;;;;;;5042761;28;20045;-67
2022/07/03 11:28:59;;;;;;;1.50;0.60;;;35.80;62.10;;;;;;5051718;28;20104;-68
2022/07/03 11:31:25;;;;;;;2.70;0.50;;;35.70;61.80;;;;;;5052170;28;20025;-65
2022/07/03 11:33:51;;;;;;;2.13;1.00;;;35.20;62.50;;;;;;5050864;28;20072;-67
2022/07/03 11:36:16;;;;;;;2.25;0.73;;;34.90;63.90;;;;;;5052213;28;20447;-65
2022/07/03 11:38:57;;;;;;;2.20;0.50;;;35.00;64.40;;;;;;5050863;28;20029;-64
2022/07/03 11:41:24;;;;;;;1.73;0.60;;;35.10;63.80;;;;;;5055971;28;20024;-70
2022/07/03 11:43:55;;;;;;;2.88;0.70;;;34.90;64.10;;;;;;5055272;28;20070;-65
2022/07/03 11:46:26;;;;;;;3.05;0.70;;;34.30;65.00;;;;;;5056035;28;20029;-64
2022/07/03 11:49:12;;;;;;;4.00;0.80;;;34.40;65.60;;;;;;5054487;28;20418;-68
2022/07/03 11:51:42;;;;;;;3.55;0.73;;;35.00;64.80;;;;;;5056105;28;20455;-64
2022/07/03 11:54:07;;;;;;;2.60;0.90;;;35.60;65.20;;;;;;5054772;28;20075;-68
2022/07/03 11:56:34;;;;;;;2.72;0.52;;;35.60;63.50;;;;;;5055319;28;20427;-67
2022/07/03 11:59:03;;;;;;;2.50;0.63;;;35.50;63.70;;;;;;5055807;28;20017;-64
2022/07/03 12:01:30;;;;;;;1.85;0.40;;;35.20;63.50;;;;;;5056484;28;20451;-67
2022/07/03 12:04:09;;;;;;;2.10;0.65;;;34.70;64.20;;;;;;5065797;28;20036;-65
2022/07/03 12:06:34;;;;;;;3.17;0.60;;;35.00;64.50;;;;;;5052362;28;20104;-65
2022/07/03 12:09:00;;;;;;;2.85;0.80;;;34.80;63.40;;;;;;5054454;28;20478;-65
2022/07/03 12:11:25;;;;;;;1.80;0.60;;;34.30;63.90;;;;;;5055072;28;20025;-65
2022/07/03 12:13:52;;;;;;;0.45;0.40;;;34.10;62.90;;;;;;5054993;28;20032;-66
2022/07/03 12:16:18;;;;;;;2.28;0.80;;;34.10;62.90;;;;;;5055077;28;20046;-64
2022/07/03 12:18:54;;;;;;;1.10;0.60;;;33.80;64.20;;;;;;5055657;28;20017;-64
2022/07/03 12:21:22;;;;;;;2.80;0.70;;;33.50;63.70;;;;;;5054282;28;20100;-65
2022/07/03 12:23:53;;;;;;;2.70;0.70;;;33.40;64.20;;;;;;5054518;28;20353;-66
2022/07/03 12:26:31;;;;;;;4.45;1.13;;;32.70;65.60;;;;;;5055411;28;20032;-64
2022/07/03 12:29:08;;;;;;;2.70;0.45;;;32.30;66.70;;;;;;5055201;28;20509;-65
2022/07/03 12:31:34;;;;;;;3.05;0.80;;;32.30;65.90;;;;;;5055496;28;20102;-66
2022/07/03 12:34:02;;;;;;;2.10;0.60;;;32.50;66.50;;;;;;5055159;28;20110;-66
2022/07/03 12:36:29;;;;;;;3.15;0.75;;;32.20;66.10;;;;;;5055323;28;20037;-68
2022/07/03 12:38:56;;;;;;;2.42;0.70;;;32.20;63.70;;;;;;5055437;28;20020;-65
2022/07/03 12:41:24;;;;;;;1.83;0.80;;;32.20;65.20;;;;;;5054013;28;20017;-65
2022/07/03 12:43:52;;;;;;;3.60;0.80;;;31.90;66.00;;;;;;5054948;28;20047;-65
2022/07/03 12:46:33;;;;;;;2.88;0.70;;;31.60;66.20;;;;;;5055629;28;20494;-65
2022/07/03 12:49:07;;;;;;;2.03;1.00;;;31.30;67.20;;;;;;5054998;28;20035;-65
2022/07/03 12:51:53;;;;;;;5.22;1.05;;;31.00;68.70;;;;;;5054117;28;20036;-67
2022/07/03 12:54:33;;;;;;;2.92;0.80;;;30.50;70.50;;;;;;5054727;28;20033;-65
2022/07/03 13:00:11;;;;;;;1.42;0.60;;;30.00;70.60;;;;;;5043851;28;20083;-65
2022/07/03 13:02:39;;;;;;;2.25;0.98;;;29.70;70.60;;;;;;5054281;28;20021;-64
2022/07/03 13:05:22;;;;;;;2.80;0.90;;;29.30;71.80;;;;;;5039668;28;20029;-68
2022/07/03 13:07:52;;;;;;;4.72;0.95;;;28.80;72.70;;;;;;5034821;28;20029;-64
2022/07/03 13:10:21;;;;;;;2.75;0.95;;;28.60;73.80;;;;;;5034546;28;20203;-65
2022/07/03 13:12:50;;;;;;;2.42;0.82;;;28.30;74.10;;;;;;5037119;28;20025;-65